Terminal Aerodrome Forecast
Issued by NWS Wilmington, OH

Current Version | Previous Version | Graphics & Text | Print | Product List | Glossary On
Versions: 1 2 3 4 5 6 7 8 9 10 11 12 13 14 15 16
000
FTUS41 KILN 300500
TAFDAY
TAF
KDAY 300520Z 3006/3106 23005KT P6SM SCT040
     FM301500 26010KT P6SM VCSH BKN040
     FM302100 27008KT P6SM SCT050
     FM302300 24004KT P6SM SCT080=

USA.gov is the U.S. government's official web portal to all federal, state and local government web resources and services.